Empire — PD5101 — position and weather

sailwx.info

Track history (hours):
 
Tides and Currents Weather Stations Pressure Air Temp Water Temp Dewpoint Dewpoint Depression Visibility Wind Speed Wind Dir Waves Ship Positions

Empire

Last reported at 2015-Aug-31 06:33 UTC. Time now 2015-Aug-31 19:46 UTC.
Position N 49°30' E 008°27'.

Length 183 m; draft 3 m.

Type: Ship. MMSI: 244670090.

Date/timePositionNaut miles runAvg speedWind from/ knotsBaromVisibWave heightAir tempDewpointWater temp
2015-Aug-31 06:33N 49°30' E 008°27'0 0.0
2015-Aug-31 05:32N 49°30' E 008°27'5 4.8
2015-Aug-31 04:27N 49°35' E 008°25'94 2.9
2015-Aug-29 20:20N 50°51' E 006°59'3 3.9
2015-Aug-29 19:28N 50°54' E 007°02'4 4.2
2015-Aug-29 18:30N 50°57' E 006°58'12 4.0
2015-Aug-29 15:26N 51°08' E 006°51'2 2.5
2015-Aug-29 14:33N 51°09' E 006°48'4 3.7
2015-Aug-29 13:34N 51°12' E 006°44'3 3.0
2015-Aug-29 12:34N 51°15' E 006°46'4 3.8
2015-Aug-29 11:31N 51°19' E 006°44'46 3.5
2015-Aug-28 22:24N 51°52' E 005°55'4 4.7
2015-Aug-28 21:31N 51°53' E 005°48'6 6.3
2015-Aug-28 20:33N 51°54' E 005°38'6 6.3
2015-Aug-28 19:33N 51°53' E 005°28'6 6.4
2015-Aug-28 18:33N 51°48' E 005°22'6 6.1
2015-Aug-28 17:33N 51°49' E 005°12'7 7.2
2015-Aug-28 16:33N 51°49' E 005°00'9 8.8
2015-Aug-28 15:33N 51°49' E 004°46'9 8.5
2015-Aug-28 14:33N 51°54' E 004°35'7 6.7
2015-Aug-28 13:33N 51°54' E 004°24'0 0.1
2015-Aug-28 10:04N 51°53' E 004°24'0 0.0
2015-Aug-28 08:30N 51°53' E 004°24'5 5.5
2015-Aug-28 07:33N 51°54' E 004°16'6 6.4
2015-Aug-28 06:33N 51°58' E 004°08'5 4.8
2015-Aug-28 05:33N 51°58' E 004°00'1 0.6
2015-Aug-28 04:33N 51°57' E 004°01'0 0.0
2015-Aug-28 03:33N 51°57' E 004°01'0 0.0
2015-Aug-28 02:33N 51°57' E 004°01'0 0.0
2015-Aug-28 01:33N 51°57' E 004°01'1 1.2
2015-Aug-28 00:33N 51°59' E 004°01'1 1.5
2015-Aug-27 23:33N 51°57' E 004°02'0 0.1
2015-Aug-27 22:33N 51°58' E 004°02'1 0.8
2015-Aug-27 21:33N 51°58' E 004°03'0 0.0
2015-Aug-27 20:33N 51°58' E 004°03'0 0.4
2015-Aug-27 19:33N 51°58' E 004°04'0 0.5
2015-Aug-27 18:33N 51°58' E 004°03'0 0.0
2015-Aug-27 17:33N 51°58' E 004°03'0 0.2
2015-Aug-27 16:33N 51°58' E 004°04'1 0.9
2015-Aug-27 15:33N 51°57' E 004°04'0 0.0
2015-Aug-27 14:33N 51°57' E 004°04'0 0.0
2015-Aug-27 13:33N 51°57' E 004°04'0 0.0
2015-Aug-27 12:33N 51°57' E 004°04'0 0.0
2015-Aug-27 11:33N 51°57' E 004°04'1 0.8
2015-Aug-27 10:33N 51°57' E 004°03'0 0.3
2015-Aug-27 09:33N 51°57' E 004°03'0 0.0
2015-Aug-27 08:34N 51°57' E 004°03'0 0.0
2015-Aug-27 07:33N 51°57' E 004°03'0 0.0
2015-Aug-27 06:33N 51°57' E 004°03'0 0.0
2015-Aug-27 05:33N 51°57' E 004°03'2 1.7
2015-Aug-27 04:33N 51°58' E 004°03'0 0.0
2015-Aug-27 03:33N 51°58' E 004°03'1 1.5
2015-Aug-27 02:33N 51°57' E 004°04'1 1.0
2015-Aug-27 01:33N 51°56' E 004°05'8 8.3
2015-Aug-27 00:33N 51°52' E 004°16'7 7.1
2015-Aug-26 23:33N 51°50' E 004°27'7 7.4
2015-Aug-26 22:33N 51°49' E 004°39'10 9.7
2015-Aug-26 21:33N 51°50' E 004°54'10 9.9
2015-Aug-26 20:33N 51°49' E 005°11'9 8.6
2015-Aug-26 19:33N 51°50' E 005°24'9 9.1
2015-Aug-26 18:33N 51°54' E 005°38'10 9.0
2015-Aug-26 17:27N 51°52' E 005°54'13 3.2
2015-Aug-26 13:14N 51°50' E 006°15'0 0.0
2015-Aug-26 12:32N 51°50' E 006°15'0 0.0
2015-Aug-26 11:22N 51°50' E 006°15'0 0.0
2015-Aug-26 10:23N 51°50' E 006°15'3 0.8
2015-Aug-26 06:33N 51°48' E 006°19'53 6.4
2015-Aug-25 22:16N 51°00' E 006°58'6 7.2
2015-Aug-25 21:30N 50°55' E 006°59'  
2015-Aug-22 19:16N 50°51' E 006°59'3 4.3
2015-Aug-22 18:28N 50°54' E 007°03'4 4.2
2015-Aug-22 17:28N 50°57' E 006°58'45 3.5
2015-Aug-22 04:26N 51°40' E 006°34'4 5.0
2015-Aug-22 03:33N 51°42' E 006°28'5 4.3
2015-Aug-22 02:22N 51°45' E 006°22'5 5.8
2015-Aug-22 01:27N 51°49' E 006°16'6 5.8
2015-Aug-22 00:23N 51°51' E 006°06'5 5.4
2015-Aug-21 23:30N 51°52' E 005°59'5 4.8
2015-Aug-21 22:28N 51°51' E 005°51'6 6.3
2015-Aug-21 21:33N 51°54' E 005°42'6 6.3
2015-Aug-21 20:33N 51°54' E 005°32'6 5.9
2015-Aug-21 19:33N 51°50' E 005°24'5 5.1
2015-Aug-21 18:33N 51°49' E 005°16'7 6.6
2015-Aug-21 17:33N 51°50' E 005°06'7 7.4
2015-Aug-21 16:33N 51°49' E 004°54'7 7.2
2015-Aug-21 15:34N 51°49' E 004°42'7 7.3
2015-Aug-21 14:33N 51°50' E 004°30'8 8.3
2015-Aug-21 13:33N 51°52' E 004°17'8 8.4
2015-Aug-21 12:33N 51°56' E 004°06'1 1.4
2015-Aug-21 11:33N 51°57' E 004°04'0 0.0
2015-Aug-21 10:33N 51°57' E 004°04'0 0.0
2015-Aug-21 09:33N 51°57' E 004°04'0 0.0
2015-Aug-21 08:33N 51°57' E 004°04'0 0.0
2015-Aug-21 07:33N 51°57' E 004°04'1 0.8
2015-Aug-21 06:33N 51°58' E 004°04'  
Track history (hours):
 
Tides and Currents Weather Stations Pressure Air Temp Water Temp Dewpoint Dewpoint Depression Visibility Wind Speed Wind Dir Waves Ship Positions

Empire

Last reported at 2015-Aug-31 06:33 UTC. Time now 2015-Aug-31 19:46 UTC.
Position N 49°30' E 008°27'.

Length 183 m; draft 3 m.

Type: Ship. MMSI: 244670090.

Date/timePositionNaut miles runAvg speedWind from/ knotsBaromVisibWave heightAir tempDewpointWater temp
2015-Aug-31 06:33N 49°30' E 008°27'0 0.0
2015-Aug-31 05:32N 49°30' E 008°27'5 4.8
2015-Aug-31 04:27N 49°35' E 008°25'94 2.9
2015-Aug-29 20:20N 50°51' E 006°59'3 3.9
2015-Aug-29 19:28N 50°54' E 007°02'4 4.2
2015-Aug-29 18:30N 50°57' E 006°58'12 4.0
2015-Aug-29 15:26N 51°08' E 006°51'2 2.5
2015-Aug-29 14:33N 51°09' E 006°48'4 3.7
2015-Aug-29 13:34N 51°12' E 006°44'3 3.0
2015-Aug-29 12:34N 51°15' E 006°46'4 3.8
2015-Aug-29 11:31N 51°19' E 006°44'46 3.5
2015-Aug-28 22:24N 51°52' E 005°55'4 4.7
2015-Aug-28 21:31N 51°53' E 005°48'6 6.3
2015-Aug-28 20:33N 51°54' E 005°38'6 6.3
2015-Aug-28 19:33N 51°53' E 005°28'6 6.4
2015-Aug-28 18:33N 51°48' E 005°22'6 6.1
2015-Aug-28 17:33N 51°49' E 005°12'7 7.2
2015-Aug-28 16:33N 51°49' E 005°00'9 8.8
2015-Aug-28 15:33N 51°49' E 004°46'9 8.5
2015-Aug-28 14:33N 51°54' E 004°35'7 6.7
2015-Aug-28 13:33N 51°54' E 004°24'0 0.1
2015-Aug-28 10:04N 51°53' E 004°24'0 0.0
2015-Aug-28 08:30N 51°53' E 004°24'5 5.5
2015-Aug-28 07:33N 51°54' E 004°16'6 6.4
2015-Aug-28 06:33N 51°58' E 004°08'5 4.8
2015-Aug-28 05:33N 51°58' E 004°00'1 0.6
2015-Aug-28 04:33N 51°57' E 004°01'0 0.0
2015-Aug-28 03:33N 51°57' E 004°01'0 0.0
2015-Aug-28 02:33N 51°57' E 004°01'0 0.0
2015-Aug-28 01:33N 51°57' E 004°01'1 1.2
2015-Aug-28 00:33N 51°59' E 004°01'1 1.5
2015-Aug-27 23:33N 51°57' E 004°02'0 0.1
2015-Aug-27 22:33N 51°58' E 004°02'1 0.8
2015-Aug-27 21:33N 51°58' E 004°03'0 0.0
2015-Aug-27 20:33N 51°58' E 004°03'0 0.4
2015-Aug-27 19:33N 51°58' E 004°04'0 0.5
2015-Aug-27 18:33N 51°58' E 004°03'0 0.0
2015-Aug-27 17:33N 51°58' E 004°03'0 0.2
2015-Aug-27 16:33N 51°58' E 004°04'1 0.9
2015-Aug-27 15:33N 51°57' E 004°04'0 0.0
2015-Aug-27 14:33N 51°57' E 004°04'0 0.0
2015-Aug-27 13:33N 51°57' E 004°04'0 0.0
2015-Aug-27 12:33N 51°57' E 004°04'0 0.0
2015-Aug-27 11:33N 51°57' E 004°04'1 0.8
2015-Aug-27 10:33N 51°57' E 004°03'0 0.3
2015-Aug-27 09:33N 51°57' E 004°03'0 0.0
2015-Aug-27 08:34N 51°57' E 004°03'0 0.0
2015-Aug-27 07:33N 51°57' E 004°03'0 0.0
2015-Aug-27 06:33N 51°57' E 004°03'0 0.0
2015-Aug-27 05:33N 51°57' E 004°03'2 1.7
2015-Aug-27 04:33N 51°58' E 004°03'0 0.0
2015-Aug-27 03:33N 51°58' E 004°03'1 1.5
2015-Aug-27 02:33N 51°57' E 004°04'1 1.0
2015-Aug-27 01:33N 51°56' E 004°05'8 8.3
2015-Aug-27 00:33N 51°52' E 004°16'7 7.1
2015-Aug-26 23:33N 51°50' E 004°27'7 7.4
2015-Aug-26 22:33N 51°49' E 004°39'10 9.7
2015-Aug-26 21:33N 51°50' E 004°54'10 9.9
2015-Aug-26 20:33N 51°49' E 005°11'9 8.6
2015-Aug-26 19:33N 51°50' E 005°24'9 9.1
2015-Aug-26 18:33N 51°54' E 005°38'10 9.0
2015-Aug-26 17:27N 51°52' E 005°54'13 3.2
2015-Aug-26 13:14N 51°50' E 006°15'0 0.0
2015-Aug-26 12:32N 51°50' E 006°15'0 0.0
2015-Aug-26 11:22N 51°50' E 006°15'0 0.0
2015-Aug-26 10:23N 51°50' E 006°15'3 0.8
2015-Aug-26 06:33N 51°48' E 006°19'53 6.4
2015-Aug-25 22:16N 51°00' E 006°58'6 7.2
2015-Aug-25 21:30N 50°55' E 006°59'  
2015-Aug-22 19:16N 50°51' E 006°59'3 4.3
2015-Aug-22 18:28N 50°54' E 007°03'4 4.2
2015-Aug-22 17:28N 50°57' E 006°58'45 3.5
2015-Aug-22 04:26N 51°40' E 006°34'4 5.0
2015-Aug-22 03:33N 51°42' E 006°28'5 4.3
2015-Aug-22 02:22N 51°45' E 006°22'5 5.8
2015-Aug-22 01:27N 51°49' E 006°16'6 5.8
2015-Aug-22 00:23N 51°51' E 006°06'5 5.4
2015-Aug-21 23:30N 51°52' E 005°59'5 4.8
2015-Aug-21 22:28N 51°51' E 005°51'6 6.3
2015-Aug-21 21:33N 51°54' E 005°42'6 6.3
2015-Aug-21 20:33N 51°54' E 005°32'6 5.9
2015-Aug-21 19:33N 51°50' E 005°24'5 5.1
2015-Aug-21 18:33N 51°49' E 005°16'7 6.6
2015-Aug-21 17:33N 51°50' E 005°06'7 7.4
2015-Aug-21 16:33N 51°49' E 004°54'7 7.2
2015-Aug-21 15:34N 51°49' E 004°42'7 7.3
2015-Aug-21 14:33N 51°50' E 004°30'8 8.3
2015-Aug-21 13:33N 51°52' E 004°17'8 8.4
2015-Aug-21 12:33N 51°56' E 004°06'1 1.4
2015-Aug-21 11:33N 51°57' E 004°04'0 0.0
2015-Aug-21 10:33N 51°57' E 004°04'0 0.0
2015-Aug-21 09:33N 51°57' E 004°04'0 0.0
2015-Aug-21 08:33N 51°57' E 004°04'0 0.0
2015-Aug-21 07:33N 51°57' E 004°04'1 0.8
2015-Aug-21 06:33N 51°58' E 004°04'  

Dump ship's entire track history